• Join FlightAware (Why Join?)
  • Login
  • US Flag 
12:03AM EDT


 

Airport Tracker/Info


-or-


 

Live Flight TrackerFlight Track Log ✈ DAL1903 ✈ 07-Apr-2013 ✈ KLGA - KSRQ

Flight Track Log - Related Links

Times and Time Zones

All times are in EDT time to prevent confusion due to time zone crossing. See the DAL1903 flight status page for this flight to view local times or setup timezone preferences in your user account.

Time Position Orientation Groundspeed Altitude Reporting Facility
EDT Latitude Longitude Course Direction KTS MPH feet Rate Location/Type
11:14AM 40.7667 -73.7833 246° West 224 258 3,000  Level New York TRACON
11:15AM 40.8167 -73.7500 27° Northeast 277 319 5,700 2,940 Climbing New York TRACON
11:16AM 40.8500 -73.8167 303° West 256 295 8,700 2,940 Climbing New York TRACON
11:17AM 40.8333 -73.9167 258° West 259 298 11,600 1,980 Climbing New York TRACON
11:18AM 40.7956 -74.1097 256° West 323 372 14,300 1,140 Climbing New York Center
11:19AM 40.5522 -74.5101 246° West  Level FlightAware Approximate
11:19AM 40.7553 -74.2092 242° Southwest 342 394 14,900  Level New York Center
11:20AM 40.7061 -74.3244 241° Southwest 348 400 15,600 1,500 Climbing New York Center
11:21AM 40.6547 -74.4392 239° Southwest 361 415 18,000 2,160 Climbing New York Center
11:22AM 40.6150 -74.5683 248° West 372 428 19,900 2,040 Climbing New York Center
11:23AM 40.5817 -74.7003 252° West 383 441 22,000 1,920 Climbing New York Center
11:24AM 40.5519 -74.8381 254° West 388 447 23,800 1,620 Climbing New York Center
11:25AM 40.5156 -74.9806 251° West 400 460 25,300 1,680 Climbing New York Center
11:26AM 40.4650 -75.1139 244° Southwest 405 466 27,200 1,920 Climbing New York Center
11:27AM 40.4122 -75.2414 242° Southwest 410 472 29,200 1,860 Climbing New York Center
11:28AM 40.3369 -75.3564 229° Southwest 404 465 30,900 1,380 Climbing New York Center
11:29AM 40.2542 -75.4514 221° Southwest 409 471 32,000 660 Climbing New York Center
11:30AM 40.1753 -75.5494 224° Southwest 404 465 32,300 720 Climbing New York Center
11:31AM 40.0853 -75.6544 222° Southwest 399 459 33,500 840 Climbing New York Center
11:32AM 40.0064 -75.7492 223° Southwest 399 459 34,000 120 Climbing New York Center
11:35AM 39.8275 -75.9644 223° Southwest 398 458 34,000  Level Washington Center
11:36AM 39.7461 -76.0583 222° Southwest 398 458 34,000  Level Washington Center
11:37AM 39.6664 -76.1522 222° Southwest 398 458 34,000  Level Washington Center
11:38AM 39.5869 -76.2486 223° Southwest 398 458 34,000  Level Washington Center
11:39AM 39.5050 -76.3419 221° Southwest 398 458 34,000  Level Washington Center
11:40AM 39.4294 -76.4406 225° Southwest 392 451 34,000  Level Washington Center
11:41AM 39.3556 -76.5578 231° Southwest 387 445 34,000  Level Washington Center
11:42AM 39.2797 -76.6561 225° Southwest 387 445 34,000  Level Washington Center
11:43AM 39.1975 -76.7433 219° Southwest 387 445 34,000  Level Washington Center
11:44AM 39.1133 -76.8328 220° Southwest 393 452 34,000  Level Washington Center
11:45AM 39.0311 -76.9197 219° Southwest 388 447 34,000  Level Washington Center
11:46AM 38.9489 -77.0089 220° Southwest 388 447 34,000  Level Washington Center
11:47AM 38.8664 -77.0981 220° Southwest 388 447 34,000  Level Washington Center
11:48AM 38.7839 -77.1842 219° Southwest 388 447 34,000  Level Washington Center
11:49AM 38.6994 -77.2728 219° Southwest 388 447 34,000  Level Washington Center
11:50AM 38.6167 -77.3639 221° Southwest 388 447 34,000  Level Washington Center
11:51AM 38.5322 -77.4494 218° Southwest 388 447 34,000  Level Washington Center
11:52AM 38.4494 -77.5403 221° Southwest 388 447 34,000  Level Washington Center
11:53AM 38.3644 -77.6281 219° Southwest 388 447 34,000  Level Washington Center
11:54AM 38.2797 -77.7158 219° Southwest 388 447 34,000  Level Washington Center
11:55AM 38.1967 -77.8006 219° Southwest 388 447 34,000  Level Washington Center
11:56AM 38.1136 -77.8906 220° Southwest 388 447 34,000  Level Washington Center
11:57AM 38.0306 -77.9775 220° Southwest 388 447 34,000  Level Washington Center
11:58AM 37.9561 -78.0569 220° Southwest 388 447 34,000  Level Washington Center
11:59AM 37.8731 -78.1436 219° Southwest 388 447 34,000  Level Washington Center
12:00PM 37.7939 -78.2303 221° Southwest 383 441 34,000  Level Washington Center
12:01PM 37.7086 -78.3164 219° Southwest 383 441 34,000  Level Washington Center
12:02PM 37.6253 -78.4028 219° Southwest 383 441 34,000 420 Level Washington Center
12:03PM 37.5311 -78.4961 218° Southwest 388 447 34,900 780 Climbing Washington Center
12:04PM 37.4456 -78.5844 219° Southwest 388 447 35,600 540 Climbing Washington Center
12:05PM 37.3619 -78.6700 219° Southwest 388 447 36,000 180 Climbing Washington Center
12:06PM 37.2786 -78.7528 218° Southwest 388 447 36,000  Level Washington Center
12:07PM 37.1928 -78.8406 219° Southwest 388 447 36,000  Level Washington Center
12:08PM 37.1175 -78.9181 219° Southwest 388 447 36,000  Level Washington Center
12:09PM 37.0317 -79.0028 218° Southwest 388 447 36,000  Level Washington Center
12:10PM 36.9458 -79.0872 218° Southwest 388 447 36,000  Level Washington Center
12:11PM 36.8619 -79.1717 219° Southwest 388 447 36,000  Level Washington Center
12:12PM 36.7761 -79.2561 218° Southwest 388 447 36,000  Level Washington Center
12:13PM 36.6814 -79.3500 218° Southwest 393 452 36,000  Level Washington Center
12:14PM 36.5972 -79.4339 219° Southwest 393 452 36,000  Level Washington Center
12:15PM 36.5111 -79.5175 218° Southwest 393 452 36,000  Level Washington Center
12:17PM 36.3297 -79.6961 218° Southwest 400 460 36,000  Level Atlanta Center
12:18PM 36.2450 -79.7781 218° Southwest 400 460 36,000  Level Atlanta Center
12:19PM 36.1603 -79.8622 219° Southwest 400 460 36,000  Level Atlanta Center
12:20PM 36.0756 -79.9436 218° Southwest 400 460 36,000  Level Atlanta Center
12:21PM 35.9897 -80.0019 209° Southwest 400 460 36,000  Level Atlanta Center
12:22PM 35.8850 -80.0533 202° Southwest 400 460 36,000  Level Atlanta Center
12:23PM 35.7825 -80.1044 202° Southwest 400 460 36,000  Level Atlanta Center
12:24PM 35.6778 -80.1556 202° Southwest 400 460 36,000  Level Atlanta Center
12:25PM 35.5750 -80.2089 203° Southwest 410 472 36,000  Level Atlanta Center
12:26PM 35.4722 -80.2594 202° Southwest 405 466 36,000  Level Atlanta Center
12:27PM 35.3550 -80.3158 201° Southwest 410 472 36,000  Level Atlanta Center
12:28PM 35.2503 -80.3664 202° Southwest 410 472 36,000  Level Atlanta Center
12:29PM 35.1475 -80.4192 203° Southwest 405 466 36,000  Level Atlanta Center
12:30PM 35.0447 -80.4719 203° Southwest 410 472 36,000  Level Atlanta Center
12:33PM 34.7300 -80.6292 202° Southwest 391 450 36,000  Level Jacksonville Center
12:34PM 34.6267 -80.6822 203° Southwest 398 458 36,000  Level Jacksonville Center
12:35PM 34.5128 -80.7433 204° Southwest 428 493 36,000  Level Jacksonville Center
12:36PM 34.4094 -80.7961 203° Southwest 421 484 36,000  Level Jacksonville Center
12:37PM 34.3058 -80.8389 199° South 401 461 36,000  Level Jacksonville Center
12:38PM 34.2067 -80.8914 204° Southwest 396 456 36,000  Level Jacksonville Center
12:39PM 34.1031 -80.9414 202° Southwest 396 456 36,000  Level Jacksonville Center
12:40PM 33.9972 -80.9914 201° Southwest 396 456 36,000  Level Jacksonville Center
12:41PM 33.8894 -81.0386 200° South 401 461 36,000  Level Jacksonville Center
12:42PM 33.7861 -81.0908 203° Southwest 408 470 36,000  Level Jacksonville Center
12:43PM 33.6803 -81.1481 204° Southwest 413 475 36,000  Level Jacksonville Center
12:44PM 33.5767 -81.1972 202° Southwest 413 475 36,000  Level Jacksonville Center
12:45PM 33.4708 -81.2517 203° Southwest 413 475 36,000  Level Jacksonville Center
12:46PM 33.3672 -81.3033 203° Southwest 413 475 36,000 -60 Level Jacksonville Center
12:47PM 33.2594 -81.3550 202° Southwest 413 475 35,900  Descending Jacksonville Center
12:48PM 33.1556 -81.4039 202° Southwest 413 475 36,000  Climbing Jacksonville Center
12:49PM 33.0497 -81.4528 201° Southwest 413 475 36,000  Level Jacksonville Center
12:50PM 32.9458 -81.5064 203° Southwest 413 475 36,000  Level Jacksonville Center
12:51PM 32.8400 -81.5550 201° Southwest 413 475 36,000  Level Jacksonville Center
12:52PM 32.7361 -81.6058 202° Southwest 413 475 36,000  Level Jacksonville Center
12:53PM 32.6239 -81.6617 203° Southwest 407 468 36,000  Level Jacksonville Center
12:54PM 32.5222 -81.7100 202° Southwest 407 468 36,000  Level Jacksonville Center
12:55PM 32.4244 -81.7556 201° Southwest 412 474 36,000  Level Jacksonville Center
12:56PM 32.3081 -81.8111 202° Southwest 412 474 36,000  Level Jacksonville Center
12:57PM 32.1997 -81.8492 197° South 412 474 36,000  Level Jacksonville Center
12:58PM 32.0853 -81.8675 188° South 417 480 36,000  Level Jacksonville Center
12:59PM 31.9706 -81.8883 189° South 417 480 36,000  Level Jacksonville Center
01:00PM 31.8661 -81.9042 187° South 428 493 36,000  Level Jacksonville Center
01:01PM 31.7392 -81.9275 189° South 428 493 36,000  Level Jacksonville Center
01:02PM 31.6244 -81.9458 188° South 428 493 36,000  Level Jacksonville Center
01:03PM 31.5200 -81.9639 188° South 428 493 36,000  Level Jacksonville Center
01:04PM 31.3886 -81.9872 189° South 428 493 36,000  Level Jacksonville Center
01:05PM 31.2844 -82.0078 190° South 428 493 36,000  Level Jacksonville Center
01:06PM 31.1678 -82.0258 188° South 428 493 36,000  Level Jacksonville Center
01:07PM 31.0508 -82.0464 189° South 428 493 36,000  Level Jacksonville Center
01:08PM 30.9342 -82.0642 187° South 428 493 36,000  Level Jacksonville Center
01:09PM 30.8172 -82.0822 188° South 428 493 36,000  Level Jacksonville Center
01:10PM 30.6983 -82.1025 188° South 428 493 36,000  Level Jacksonville Center
01:11PM 30.5836 -82.1228 189° South 428 493 36,000  Level Jacksonville Center
01:12PM 30.4669 -82.1383 187° South 423 487 36,000  Level Jacksonville Center
01:13PM 30.3500 -82.1583 188° South 428 493 36,000 -600 Level Jacksonville Center
01:14PM 30.2228 -82.1811 189° South 421 484 34,900 -660 Descending Jacksonville Center
01:15PM 30.1081 -82.1986 188° South 426 490 34,700 -1,080 Descending Jacksonville Center
01:16PM 30.0039 -82.2186 189° South 426 490 32,800 -2,520 Descending Jacksonville Center
01:17PM 29.8892 -82.2386 189° South 426 490 29,700 -2,760 Descending Jacksonville Center
01:18PM 29.7556 -82.2611 188° South 433 498 27,300 -1,380 Descending Jacksonville Center
01:19PM 29.6386 -82.2642 181° South 433 498 27,000 -300 Descending Jacksonville Center
01:20PM 29.5194 -82.2458 172° South 428 493 26,800 -720 Descending Jacksonville Center
01:21PM 29.4047 -82.2250 171° South 428 493 25,600 -1,140 Descending Jacksonville Center
01:22PM 29.2897 -82.2092 173° South 423 487 24,600 -840 Descending Jacksonville Center
01:23PM 29.1769 -82.1911 172° South 423 487 24,000 -1,080 Descending Jacksonville Center
01:24PM 29.0683 -82.1750 173° South 411 473 22,500 -2,280 Descending Jacksonville Center
01:25PM 28.9639 -82.1617 174° South 400 460 19,500 -2,700 Descending Jacksonville Center
01:26PM 28.8678 -82.1481 173° South 390 449 17,200 -2,280 Descending Jacksonville Center
01:28PM 28.6667 -82.1167 172° South 364 419 13,000 -1,560 Descending Tampa TRACON
01:29PM 28.5667 -82.1000 172° South 360 414 12,800 -480 Descending Tampa TRACON
01:30PM 28.4667 -82.1500 204° Southwest 353 406 12,000 -420 Descending Tampa TRACON
01:31PM 28.4000 -82.2167 221° Southwest 353 406 12,000  Level Tampa TRACON
01:32PM 28.3167 -82.2833 215° Southwest 352 405 12,000  Level Tampa TRACON
01:33PM 28.2333 -82.3000 190° South 348 400 12,000 -300 Level Tampa TRACON
01:34PM 28.1333 -82.2833 172° South 336 387 11,400 -900 Descending Tampa TRACON
01:35PM 28.0500 -82.2667 170° South 296 341 10,300 -1,500 Descending Tampa TRACON
01:36PM 27.9667 -82.2500 170° South 289 333 8,300 -1,680 Descending Tampa TRACON
01:37PM 27.8833 -82.2500 180° South 282 325 6,800 -1,320 Descending Tampa TRACON
01:38PM 27.8333 -82.2333 164° South 268 308 6,000 -420 Descending Tampa TRACON
01:39PM 27.7500 -82.2667 199° South 271 312 6,000  Level Tampa TRACON
01:40PM 27.6833 -82.3167 214° Southwest 275 316 6,000 -360 Level Tampa TRACON
01:41PM 27.6500 -82.3667 233° Southwest 276 318 5,400 -1,140 Descending Tampa TRACON
01:42PM 27.6000 -82.4333 230° Southwest 271 312 3,900 -1,320 Descending Tampa TRACON
01:43PM 27.5500 -82.5167 236° Southwest 270 311 2,800 -900 Descending Tampa TRACON
01:44PM 27.5167 -82.5833 241° Southwest 257 296 2,100 -660 Descending Tampa TRACON
01:45PM 27.4667 -82.6167 211° Southwest 189 217 1,500 -660 Descending Tampa TRACON
01:46PM 27.4333 -82.6000 156° South 132 152 800 -720 Descending Tampa TRACON
01:48PM 27.3954 -82.5544 160° South  Level Estimated
01:55PM 27.3954 -82.5544 160° South  Level Estimated